Time;durP1;ratioP1;P1;durP2;ratioP2;P2;SDS_P1;SDS_P2;PMS_P1;PMS_P2;Temp;Humidity;BMP_temperature;BMP_pressure;BME280_temperature;BME280_humidity;BME280_pressure;Samples;Min_cycle;Max_cycle;Signal;HPM_P1;HPM_P2
2022/06/14 00:01:58;;;;;;;1.20;0.90;;;;;;;19.74;100.00;95250.13;5091668;28;20966;-70
2022/06/14 00:04:27;;;;;;;0.40;0.30;;;;;;;19.77;100.00;95246.78;5092096;28;20425;-70
2022/06/14 00:06:55;;;;;;;0.67;0.57;;;;;;;19.74;100.00;95246.66;5092079;28;20421;-70
2022/06/14 00:09:25;;;;;;;0.73;0.53;;;;;;;19.48;100.00;95246.88;5092032;28;20460;-70
2022/06/14 00:11:53;;;;;;;0.57;0.40;;;;;;;19.33;100.00;95242.78;5092168;28;20467;-70
2022/06/14 00:14:22;;;;;;;1.53;0.83;;;;;;;19.51;100.00;95230.06;5091817;28;20459;-70
2022/06/14 00:16:50;;;;;;;0.93;0.67;;;;;;;19.45;100.00;95217.94;5091686;28;20515;-70
2022/06/14 00:19:19;;;;;;;0.50;0.37;;;;;;;19.11;100.00;95161.69;5091985;28;20428;-71
2022/06/14 00:21:47;;;;;;;0.50;0.40;;;;;;;19.24;100.00;95247.44;5092278;28;20873;-69
2022/06/14 00:24:16;;;;;;;1.30;1.00;;;;;;;18.69;100.00;95209.97;5092060;28;20847;-69
2022/06/14 00:26:46;;;;;;;0.70;0.70;;;;;;;18.85;100.00;95255.84;5091639;28;20515;-70
2022/06/14 00:29:14;;;;;;;0.53;0.37;;;;;;;19.01;100.00;95246.94;5091579;28;20485;-68
2022/06/14 00:31:42;;;;;;;0.70;0.60;;;;;;;18.88;100.00;95237.19;5091643;28;20499;-68
2022/06/14 00:34:11;;;;;;;0.50;0.40;;;;;;;18.95;100.00;95250.91;5091515;28;20452;-68
2022/06/14 00:36:39;;;;;;;0.70;0.70;;;;;;;18.87;100.00;95222.19;5091541;28;20842;-68
2022/06/14 00:39:10;;;;;;;0.70;0.70;;;;;;;19.12;100.00;95252.72;5091347;28;20485;-68
2022/06/14 00:41:42;;;;;;;0.90;0.90;;;;;;;19.17;100.00;95254.44;5091807;28;20859;-72
2022/06/14 00:44:17;;;;;;;0.53;0.40;;;;;;;19.17;100.00;95251.75;5091778;28;20448;-68
2022/06/14 00:46:54;;;;;;;0.50;0.30;;;;;;;19.11;100.00;95251.16;5091415;28;20434;-67
2022/06/14 00:49:28;;;;;;;1.17;1.17;;;;;;;19.14;100.00;95241.66;5091281;28;20576;-67
2022/06/14 00:52:02;;;;;;;0.67;0.40;;;;;;;19.14;100.00;95244.34;5091904;28;20543;-67
2022/06/14 00:54:36;;;;;;;0.60;0.40;;;;;;;19.13;100.00;95245.44;5091358;28;20423;-67
2022/06/14 00:57:15;;;;;;;0.47;0.40;;;;;;;19.00;100.00;95241.88;5091804;28;20500;-66
2022/06/14 00:59:51;;;;;;;0.50;0.40;;;;;;;18.97;100.00;95248.66;5091486;28;20482;-66
2022/06/14 01:02:24;;;;;;;0.53;0.30;;;;;;;18.90;100.00;95245.72;5091049;28;20519;-66
2022/06/14 01:04:54;;;;;;;0.40;0.30;;;;;;;18.94;100.00;95249.34;5091367;28;20459;-66
2022/06/14 01:07:28;;;;;;;0.50;0.40;;;;;;;18.90;100.00;95251.09;5091468;28;20447;-66
2022/06/14 01:10:05;;;;;;;0.80;0.73;;;;;;;18.73;100.00;95255.75;5091492;28;20888;-65
2022/06/14 01:12:38;;;;;;;0.40;0.30;;;;;;;18.77;100.00;95254.75;5091861;28;20497;-66
2022/06/14 01:15:19;;;;;;;0.70;0.30;;;;;;;18.62;100.00;95241.88;5094797;28;20550;-66
2022/06/14 01:17:52;;;;;;;1.73;0.97;;;;;;;18.80;100.00;95254.13;5095379;28;20447;-65
2022/06/14 01:20:22;;;;;;;0.50;0.40;;;;;;;18.74;100.00;95263.47;5094606;28;20948;-65
2022/06/14 01:22:54;;;;;;;0.97;0.97;;;;;;;18.09;100.00;95249.56;5094921;28;20900;-65
2022/06/14 01:25:28;;;;;;;0.60;0.40;;;;;;;17.56;100.00;95256.03;5094872;28;20553;-65
2022/06/14 01:27:58;;;;;;;0.40;0.30;;;;;;;17.84;100.00;95285.19;5094480;28;20460;-65
2022/06/14 01:30:31;;;;;;;0.50;0.40;;;;;;;17.60;100.00;95173.91;5094775;28;20443;-65
2022/06/14 01:33:03;;;;;;;0.50;0.40;;;;;;;18.58;100.00;95267.78;5094858;28;20452;-65
2022/06/14 01:35:45;;;;;;;0.40;0.30;;;;;;;16.22;100.00;94952.69;5094510;28;20464;-65
2022/06/14 01:38:17;;;;;;;0.50;0.47;;;;;;;18.35;100.00;95244.94;5094497;28;20436;-65
2022/06/14 01:40:57;;;;;;;2.77;0.90;;;;;;;17.60;100.00;95124.88;5093336;28;20421;-64
2022/06/14 01:43:46;;;;;;;0.80;0.80;;;;;;;18.55;100.00;95279.16;5093403;28;20452;-65
2022/06/14 01:46:24;;;;;;;0.97;0.97;;;;;;;18.59;100.00;95282.00;5094360;28;20580;-65
2022/06/14 01:52:26;;;;;;;0.80;0.80;;;;;;;18.63;100.00;95281.03;5093124;28;20436;-65
2022/06/14 01:55:21;;;;;;;0.90;0.90;;;;;;;16.68;100.00;94984.22;5094497;28;20470;-64
2022/06/14 01:58:02;;;;;;;0.87;0.87;;;;;;;16.38;100.00;94955.72;5094418;28;20421;-65
2022/06/14 02:01:02;;;;;;;0.50;0.40;;;;;;;18.21;100.00;95210.25;5094314;28;20810;-64
2022/06/14 02:07:24;;;;;;;0.60;0.40;;;;;;;18.60;100.00;95275.50;5094133;28;20452;-64
2022/06/14 02:10:05;;;;;;;3.33;1.37;;;;;;;17.93;100.00;95249.25;5093810;28;20459;-63
2022/06/14 02:12:43;;;;;;;1.23;0.73;;;;;;;17.67;100.00;95275.28;5093745;28;20464;-63
2022/06/14 02:15:20;;;;;;;1.27;1.13;;;;;;;17.56;100.00;95239.94;5093735;28;20420;-63
2022/06/14 02:17:56;;;;;;;0.60;0.50;;;;;;;18.04;100.00;95285.38;5094081;28;20515;-63
2022/06/14 02:20:30;;;;;;;5.50;0.40;;;;;;;18.24;100.00;95279.34;5093874;28;20493;-63
2022/06/14 02:23:05;;;;;;;0.50;0.40;;;;;;;18.20;100.00;95288.34;5093835;28;20546;-63
2022/06/14 02:26:01;;;;;;;0.50;0.30;;;;;;;18.22;100.00;95286.13;5093274;28;20428;-62
2022/06/14 02:28:37;;;;;;;0.60;0.60;;;;;;;17.96;100.00;95269.28;5093486;28;20420;-63
2022/06/14 02:31:30;;;;;;;0.50;0.30;;;;;;;18.08;100.00;95280.16;5093444;28;20515;-63
2022/06/14 02:34:24;;;;;;;0.50;0.40;;;;;;;17.91;100.00;95280.94;5093251;28;20472;-62
2022/06/14 02:37:15;;;;;;;0.60;0.60;;;;;;;17.81;100.00;95289.31;5093265;28;20500;-62
2022/06/14 02:39:50;;;;;;;1.37;1.33;;;;;;;18.12;100.00;95286.47;5093114;28;20972;-62
2022/06/14 02:42:46;;;;;;;0.50;0.50;;;;;;;18.15;100.00;95265.16;5093110;28;20456;-62
2022/06/14 02:45:24;;;;;;;0.63;0.53;;;;;;;18.40;100.00;95293.06;5093367;28;20464;-62
2022/06/14 02:48:17;;;;;;;0.50;0.43;;;;;;;17.71;100.00;95203.84;5093030;28;20442;-62
2022/06/14 02:51:09;;;;;;;1.90;1.87;;;;;;;18.47;100.00;95289.94;5093399;28;20463;-62
2022/06/14 02:54:02;;;;;;;0.60;0.60;;;;;;;18.44;100.00;95288.66;5092490;28;20826;-62
2022/06/14 02:56:57;;;;;;;0.77;0.40;;;;;;;18.42;100.00;95296.22;5092740;28;20516;-62
2022/06/14 03:03:16;;;;;;;0.50;0.50;;;;;;;18.32;100.00;95291.19;5092746;28;20440;-62
2022/06/14 03:06:10;;;;;;;0.57;0.50;;;;;;;18.35;100.00;95301.28;5092653;28;20872;-61
2022/06/14 03:09:15;;;;;;;1.10;0.60;;;;;;;18.07;100.00;95298.16;5092606;28;20489;-62
2022/06/14 03:12:26;;;;;;;0.70;0.70;;;;;;;18.20;100.00;95304.44;5092903;28;20503;-62
2022/06/14 03:15:07;;;;;;;0.50;0.40;;;;;;;17.73;100.00;95304.28;5092387;28;20432;-62
2022/06/14 03:18:08;;;;;;;0.93;0.90;;;;;;;18.01;100.00;95312.81;5092427;28;20500;-63
2022/06/14 03:20:47;;;;;;;0.57;0.50;;;;;;;17.72;100.00;95309.97;5092270;28;20902;-62
2022/06/14 03:23:45;;;;;;;0.93;0.93;;;;;;;17.58;100.00;95314.69;5091541;28;20420;-61
2022/06/14 03:26:39;;;;;;;0.97;0.97;;;;;;;17.68;100.00;95296.38;5092359;28;20479;-62
2022/06/14 03:32:41;;;;;;;1.73;1.10;;;;;;;17.34;100.00;95280.25;5092223;28;20531;-63
2022/06/14 03:35:18;;;;;;;0.80;0.80;;;;;;;17.75;100.00;95315.50;5091768;28;20531;-62
2022/06/14 03:37:47;;;;;;;0.63;0.63;;;;;;;17.64;100.00;95319.56;5092571;28;20499;-62
2022/06/14 03:40:21;;;;;;;1.13;0.70;;;;;;;17.71;100.00;95319.91;5092308;28;20420;-61
2022/06/14 03:42:50;;;;;;;1.63;0.73;;;;;;;17.37;100.00;95249.34;5092330;28;20420;-63
2022/06/14 03:45:43;;;;;;;2.70;2.00;;;;;;;17.73;100.00;95268.66;5092742;28;20494;-62
2022/06/14 03:48:13;;;;;;;0.50;0.30;;;;;;;18.07;100.00;95303.50;5092206;28;20440;-63
2022/06/14 03:50:58;;;;;;;0.60;0.50;;;;;;;17.23;100.00;95185.19;5092097;28;20456;-63
2022/06/14 03:53:45;;;;;;;0.50;0.47;;;;;;;18.02;100.00;95313.59;5091926;28;20533;-64
2022/06/14 03:56:29;;;;;;;0.47;0.30;;;;;;;18.14;100.00;95313.78;5091778;28;20854;-64
2022/06/14 03:59:27;;;;;;;1.07;0.97;;;;;;;18.21;100.00;95306.03;5092263;28;20800;-64
2022/06/14 04:02:18;;;;;;;8.23;1.17;;;;;;;18.32;100.00;95312.63;5092156;28;20514;-65
2022/06/14 04:04:57;;;;;;;6.13;0.67;;;;;;;18.36;100.00;95318.97;5091893;28;20770;-66
2022/06/14 04:07:36;;;;;;;0.60;0.60;;;;;;;17.55;100.00;95187.47;5091858;28;20896;-65
2022/06/14 04:10:19;;;;;;;0.70;0.57;;;;;;;17.58;100.00;95192.19;5092238;28;20495;-65
2022/06/14 04:13:10;;;;;;;0.70;0.70;;;;;;;14.25;100.00;94655.78;5092014;28;20921;-66
2022/06/14 04:15:43;;;;;;;0.60;0.47;;;;;;;18.53;100.00;95305.53;5091945;28;20440;-66
2022/06/14 04:18:48;;;;;;;0.40;0.30;;;;;;;18.65;100.00;95321.78;5092504;28;20883;-66
2022/06/14 04:21:43;;;;;;;0.47;0.30;;;;;;;18.77;100.00;95319.22;5092006;28;20471;-68
2022/06/14 04:24:21;;;;;;;0.90;0.63;;;;;;;18.91;100.00;95335.13;5092181;28;20870;-69
2022/06/14 04:26:57;;;;;;;0.50;0.40;;;;;;;19.00;100.00;95336.69;5092233;28;20839;-69
2022/06/14 04:29:32;;;;;;;1.13;1.07;;;;;;;18.32;100.00;95288.50;5091992;28;20420;-67
2022/06/14 04:32:05;;;;;;;0.50;0.47;;;;;;;18.86;100.00;95338.78;5091842;28;20428;-68
2022/06/14 04:34:44;;;;;;;0.40;0.37;;;;;;;18.81;100.00;95333.59;5091804;28;20427;-69
2022/06/14 04:37:19;;;;;;;0.70;0.60;;;;;;;18.81;100.00;95328.22;5091540;28;20459;-68
2022/06/14 04:39:53;;;;;;;1.07;1.07;;;;;;;19.01;100.00;95340.94;5091840;28;20904;-68
2022/06/14 04:42:28;;;;;;;0.60;0.40;;;;;;;19.12;100.00;95344.06;5092250;28;20448;-69
2022/06/14 04:45:03;;;;;;;0.40;0.30;;;;;;;19.32;100.00;95342.56;5091748;28;20511;-68
2022/06/14 04:47:38;;;;;;;1.93;1.83;;;;;;;19.52;100.00;95347.25;5093874;28;20473;-66
2022/06/14 04:50:12;;;;;;;1.00;1.00;;;;;;;19.45;100.00;95344.28;5095510;28;20523;-66
2022/06/14 04:52:47;;;;;;;0.83;0.80;;;;;;;19.56;100.00;95342.78;5095462;28;20468;-65
2022/06/14 04:55:20;;;;;;;1.40;0.97;;;;;;;19.74;100.00;95344.25;5095560;28;20477;-65
2022/06/14 04:57:53;;;;;;;0.63;0.63;;;;;;;19.94;100.00;95340.00;5095324;28;20506;-65
2022/06/14 05:00:24;;;;;;;0.70;0.60;;;;;;;19.98;100.00;95330.97;5095709;28;20805;-64
2022/06/14 05:02:58;;;;;;;1.83;1.37;;;;;;;19.59;100.00;95348.31;5095778;28;20421;-64
2022/06/14 05:05:32;;;;;;;0.60;0.60;;;;;;;19.44;100.00;95334.63;5095282;28;20451;-62
2022/06/14 05:08:08;;;;;;;3.50;2.00;;;;;;;19.74;100.00;95340.78;5095629;28;20518;-62
2022/06/14 05:10:43;;;;;;;0.87;0.80;;;;;;;20.08;100.00;95346.72;5095369;28;20420;-62
2022/06/14 05:13:23;;;;;;;2.90;2.00;;;;;;;20.39;100.00;95343.63;5095100;28;20514;-61
2022/06/14 05:15:58;;;;;;;0.60;0.40;;;;;;;20.59;100.00;95336.66;5095006;28;20431;-61
2022/06/14 05:19:01;;;;;;;1.20;1.13;;;;;;;20.61;100.00;95342.50;5095062;28;20489;-61
2022/06/14 05:21:35;;;;;;;3.40;1.30;;;;;;;20.18;100.00;95340.16;5095069;28;20503;-63
2022/06/14 05:24:06;;;;;;;0.90;0.90;;;;;;;20.38;100.00;95339.38;5095325;28;20503;-62
2022/06/14 05:26:50;;;;;;;4.57;0.93;;;;;;;19.99;100.00;95270.66;5094891;28;20481;-62
2022/06/14 05:29:25;;;;;;;0.97;0.90;;;;;;;20.11;100.00;95335.28;5094574;28;21089;-62
2022/06/14 05:32:04;;;;;;;2.63;1.10;;;;;;;20.35;100.00;95313.13;5095170;28;20452;-61
2022/06/14 05:34:46;;;;;;;4.50;0.87;;;;;;;16.88;100.00;94760.63;5095205;28;20424;-62
2022/06/14 05:37:24;;;;;;;1.90;1.80;;;;;;;20.48;100.00;95295.91;5094767;28;20969;-62
2022/06/14 05:39:57;;;;;;;1.83;1.13;;;;;;;19.74;100.00;95266.28;5094894;28;20456;-62
2022/06/14 05:42:34;;;;;;;0.70;0.70;;;;;;;20.37;100.00;95308.19;5094606;28;20520;-62
2022/06/14 05:45:04;;;;;;;0.80;0.80;;;;;;;20.76;100.00;95334.59;5094794;28;20485;-62
2022/06/14 05:47:37;;;;;;;0.60;0.60;;;;;;;20.08;100.00;95259.84;5094443;28;20983;-62
2022/06/14 05:50:13;;;;;;;1.17;1.03;;;;;;;20.63;100.00;95334.88;5094557;28;20416;-62
2022/06/14 05:53:07;;;;;;;1.50;0.73;;;;;;;20.52;100.00;95345.25;5093919;28;20476;-62
2022/06/14 05:55:41;;;;;;;0.80;0.80;;;;;;;20.69;100.00;95338.94;5094057;28;20485;-62
2022/06/14 05:58:18;;;;;;;1.07;0.87;;;;;;;20.67;100.00;95320.41;5093837;28;20464;-62
2022/06/14 06:00:52;;;;;;;2.50;2.30;;;;;;;20.60;100.00;95303.22;5094193;28;20427;-62
2022/06/14 06:03:29;;;;;;;1.27;0.73;;;;;;;20.76;100.00;95339.97;5094655;28;20413;-62
2022/06/14 06:06:04;;;;;;;1.50;1.40;;;;;;;20.41;100.00;95270.63;5094429;28;20423;-62
2022/06/14 06:08:39;;;;;;;0.97;0.80;;;;;;;20.79;100.00;95230.78;5093858;28;20481;-62
2022/06/14 06:11:16;;;;;;;2.00;0.60;;;;;;;21.58;100.00;95342.69;5094092;28;20481;-61
2022/06/14 06:13:49;;;;;;;1.60;1.37;;;;;;;21.53;100.00;95274.34;5094374;28;20486;-61
2022/06/14 06:16:24;;;;;;;1.20;0.80;;;;;;;22.06;100.00;95313.72;5094040;28;20424;-60
2022/06/14 06:18:57;;;;;;;2.53;0.40;;;;;;;22.97;100.00;95332.88;5093866;28;20464;-60
2022/06/14 06:21:33;;;;;;;0.53;0.53;;;;;;;22.96;100.00;95320.47;5094216;28;20456;-61
2022/06/14 06:24:10;;;;;;;0.80;0.80;;;;;;;23.24;100.00;95340.13;5094154;28;20473;-60
2022/06/14 06:26:44;;;;;;;0.60;0.53;;;;;;;23.22;100.00;95297.22;5094248;28;20427;-60
2022/06/14 06:29:18;;;;;;;0.73;0.73;;;;;;;22.86;100.00;95316.38;5094129;28;20822;-60
2022/06/14 06:31:48;;;;;;;0.60;0.60;;;;;;;23.50;100.00;95335.00;5094133;28;20503;-60
2022/06/14 06:34:18;;;;;;;1.57;1.47;;;;;;;23.54;100.00;95332.38;5093855;28;20420;-60
2022/06/14 06:36:58;;;;;;;0.80;0.70;;;;;;;23.28;100.00;95338.28;5093936;28;20455;-60
2022/06/14 06:39:35;;;;;;;2.93;1.27;;;;;;;22.87;100.00;95282.03;5093808;28;20495;-60
2022/06/14 06:42:13;;;;;;;1.10;1.00;;;;;;;22.95;100.00;95313.47;5093869;28;20416;-60
2022/06/14 06:44:52;;;;;;;0.67;0.57;;;;;;;23.68;100.00;95340.84;5093500;28;20463;-60
2022/06/14 06:47:28;;;;;;;0.80;0.70;;;;;;;23.81;100.00;95280.03;5093728;28;20782;-60
2022/06/14 06:50:11;;;;;;;4.77;1.67;;;;;;;24.38;100.00;95349.75;5093487;28;20448;-61
2022/06/14 06:52:48;;;;;;;1.97;0.80;;;;;;;24.76;100.00;95311.81;5093844;28;20476;-60
2022/06/14 06:55:23;;;;;;;0.70;0.70;;;;;;;25.07;97.59;95289.91;5093733;28;20466;-59
2022/06/14 06:57:57;;;;;;;0.63;0.63;;;;;;;25.49;95.96;95332.50;5093182;28;20467;-59
2022/06/14 07:00:28;;;;;;;1.73;1.20;;;;;;;25.14;93.94;95338.09;5093130;28;20481;-60
2022/06/14 07:03:12;;;;;;;0.83;0.83;;;;;;;25.39;94.59;95331.16;5092940;28;20434;-60
2022/06/14 07:05:50;;;;;;;0.87;0.87;;;;;;;25.11;92.98;95336.09;5094500;28;20424;-61
2022/06/14 07:08:35;;;;;;;1.47;1.37;;;;;;;25.43;88.88;95342.03;5095385;28;20431;-61
2022/06/14 07:11:07;;;;;;;1.00;0.87;;;;;;;25.84;90.22;95316.75;5093555;28;20511;-63
2022/06/14 07:13:47;;;;;;;1.53;1.43;;;;;;;26.06;85.94;95334.16;5094850;28;20452;-64
2022/06/14 07:16:23;;;;;;;0.77;0.77;;;;;;;25.83;81.21;95307.81;5093533;28;20434;-62
2022/06/14 07:18:58;;;;;;;0.90;0.90;;;;;;;26.11;88.88;95318.28;5092993;28;20520;-64
2022/06/14 07:21:32;;;;;;;1.10;1.00;;;;;;;25.92;81.44;95245.09;5094933;28;20850;-65
2022/06/14 07:24:05;;;;;;;0.50;0.50;;;;;;;27.09;79.95;95318.75;5094740;28;20502;-65
2022/06/14 07:26:38;;;;;;;1.23;1.13;;;;;;;26.79;80.08;95314.53;5097276;28;20505;-66
2022/06/14 07:29:15;;;;;;;0.60;0.60;;;;;;;27.08;84.15;95316.38;5093245;28;20879;-68
2022/06/14 07:31:48;;;;;;;7.20;1.80;;;;;;;26.09;86.05;95194.84;5093015;28;20916;-67
2022/06/14 07:34:18;;;;;;;0.80;0.80;;;;;;;26.89;75.56;95311.16;5092584;28;20452;-66
2022/06/14 07:36:57;;;;;;;3.70;0.70;;;;;;;26.12;80.01;95294.66;5092557;28;20421;-67
2022/06/14 07:39:34;;;;;;;1.00;0.97;;;;;;;26.44;75.96;95266.72;5092590;28;20470;-67
2022/06/14 07:42:09;;;;;;;0.90;0.63;;;;;;;26.49;75.47;95165.81;5093105;28;20499;-67
2022/06/14 07:44:47;;;;;;;0.60;0.60;;;;;;;26.84;76.09;95284.28;5092454;28;20840;-67
2022/06/14 07:47:21;;;;;;;1.47;0.80;;;;;;;27.20;76.51;95307.16;5092355;28;20463;-65
2022/06/14 07:49:56;;;;;;;0.63;0.63;;;;;;;27.67;74.81;95309.91;5092653;28;20523;-64
2022/06/14 07:52:30;;;;;;;0.70;0.70;;;;;;;27.29;73.57;95307.63;5092220;28;20480;-63
2022/06/14 07:55:06;;;;;;;0.90;0.90;;;;;;;27.87;72.50;95297.59;5091933;28;20481;-63
2022/06/14 07:57:41;;;;;;;32.47;1.37;;;;;;;27.53;74.45;95310.56;5092214;28;20424;-62
2022/06/14 08:03:13;;;;;;;1.43;1.33;;;;;;;27.96;72.51;95292.59;5092380;28;20456;-61
2022/06/14 08:05:47;;;;;;;1.10;1.10;;;;;;;24.35;72.00;94754.50;5092029;28;20484;-60
2022/06/14 08:08:20;;;;;;;0.90;0.90;;;;;;;27.81;71.57;95269.13;5092285;28;20425;-60
2022/06/14 08:10:54;;;;;;;16.43;1.40;;;;;;;28.21;68.62;95258.09;5091896;28;20519;-59
2022/06/14 08:13:28;;;;;;;1.43;0.93;;;;;;;27.96;70.44;95229.91;5091898;28;20463;-59
2022/06/14 08:16:01;;;;;;;0.97;0.83;;;;;;;28.59;66.62;95285.91;5091874;28;20499;-59
2022/06/14 08:18:36;;;;;;;0.87;0.87;;;;;;;28.56;68.51;95286.66;5091992;28;20516;-59
2022/06/14 08:21:09;;;;;;;1.03;1.03;;;;;;;29.23;70.29;95273.22;5092247;28;20451;-59
2022/06/14 08:23:42;;;;;;;4.10;0.80;;;;;;;28.90;62.36;95187.78;5095783;28;20473;-59
2022/06/14 08:26:19;;;;;;;1.60;0.73;;;;;;;28.84;63.08;95252.06;5098044;28;20429;-66
2022/06/14 08:28:51;;;;;;;0.53;0.53;;;;;;;29.36;72.15;95272.44;5099253;28;20432;-65
2022/06/14 08:31:28;;;;;;;0.80;0.50;;;;;;;30.08;72.98;95263.00;5096948;28;20416;-57
2022/06/14 08:34:04;;;;;;;0.80;0.80;;;;;;;29.98;62.43;95263.81;5095612;28;20467;-57
2022/06/14 08:36:43;;;;;;;0.50;0.50;;;;;;;30.72;56.29;95250.63;5095848;28;20855;-57
2022/06/14 08:39:16;;;;;;;2.10;0.67;;;;;;;31.00;55.50;95248.91;5095514;28;20487;-56
2022/06/14 08:41:58;;;;;;;1.07;0.70;;;;;;;31.35;57.08;95246.69;5095600;28;20424;-57
2022/06/14 08:44:33;;;;;;;2.10;0.73;;;;;;;31.70;53.32;95244.88;5096127;28;20420;-57
2022/06/14 08:47:16;;;;;;;0.63;0.63;;;;;;;31.19;59.02;95231.97;5095869;28;20916;-56
2022/06/14 08:49:50;;;;;;;0.60;0.40;;;;;;;31.19;53.85;95210.06;5095722;28;21004;-56
2022/06/14 08:53:04;;;;;;;1.67;1.10;;;;;;;31.63;57.96;95225.72;5095482;28;20420;-56
2022/06/14 08:55:51;;;;;;;0.60;0.57;;;;;;;31.94;51.77;95203.50;5095572;28;20432;-56
2022/06/14 08:58:50;;;;;;;0.40;0.40;;;;;;;32.61;45.13;95224.63;5095828;28;20447;-55
2022/06/14 09:01:32;;;;;;;0.77;0.73;;;;;;;32.81;47.57;95221.25;5095785;28;20416;-55
2022/06/14 09:04:25;;;;;;;3.90;1.43;;;;;;;31.81;50.72;95215.38;5095334;28;20923;-55
2022/06/14 09:07:23;;;;;;;0.60;0.60;;;;;;;31.98;48.29;95211.66;5095372;28;20939;-56
2022/06/14 09:10:18;;;;;;;0.60;0.60;;;;;;;32.32;44.22;95208.94;5095885;28;20431;-56
2022/06/14 09:13:17;;;;;;;0.77;0.77;;;;;;;32.44;48.37;95202.91;5095160;28;20900;-56
2022/06/14 09:16:26;;;;;;;5.20;0.67;;;;;;;32.28;51.17;95208.22;5095408;28;20423;-55
2022/06/14 09:19:05;;;;;;;0.60;0.60;;;;;;;32.13;50.47;95204.09;5095029;28;21156;-55
2022/06/14 09:21:52;;;;;;;0.60;0.50;;;;;;;32.30;48.84;95205.84;5094998;28;20943;-55
2022/06/14 09:24:38;;;;;;;1.03;0.93;;;;;;;33.15;49.12;95200.75;5095292;28;20526;-55
2022/06/14 09:27:14;;;;;;;1.07;1.07;;;;;;;32.82;42.69;95193.38;5095001;28;20999;-59
2022/06/14 09:30:20;;;;;;;0.50;0.50;;;;;;;33.18;45.00;95166.16;5095180;28;20423;-59
2022/06/14 09:33:26;;;;;;;0.60;0.60;;;;;;;31.02;42.17;95088.56;5094431;28;20446;-59
2022/06/14 09:36:25;;;;;;;0.73;0.73;;;;;;;30.69;43.11;95094.69;5094993;28;20500;-59
2022/06/14 09:39:35;;;;;;;0.77;0.77;;;;;;;31.04;41.53;95017.78;5094549;28;20463;-59
2022/06/14 09:42:45;;;;;;;0.53;0.50;;;;;;;32.43;42.16;95201.38;5095007;28;20505;-59
2022/06/14 09:45:45;;;;;;;0.90;0.77;;;;;;;32.31;43.01;95103.91;5075960;28;20485;-60
2022/06/14 09:49:00;;;;;;;0.80;0.80;;;;;;;33.21;40.70;95198.28;5094578;28;20482;-59
2022/06/14 09:51:59;;;;;;;0.50;0.50;;;;;;;32.97;39.38;95062.91;5094894;28;20505;-59
2022/06/14 09:55:14;;;;;;;1.43;0.77;;;;;;;34.10;40.31;95197.53;5094394;28;20885;-59
2022/06/14 09:58:19;;;;;;;0.60;0.60;;;;;;;33.73;38.70;95152.63;5094443;28;20519;-59
2022/06/14 10:00:57;;;;;;;3.23;0.60;;;;;;;34.26;36.54;95216.84;5081318;28;20565;-59
2022/06/14 10:03:55;;;;;;;0.40;0.40;;;;;;;33.31;41.32;95213.81;5093525;28;20431;-59
2022/06/14 10:07:05;;;;;;;0.60;0.50;;;;;;;30.52;41.32;95216.75;5094377;28;20434;-58
2022/06/14 10:09:48;;;;;;;0.40;0.40;;;;;;;28.33;42.25;95134.31;5088032;28;21002;-58
2022/06/14 10:12:53;;;;;;;0.40;0.40;;;;;;;27.28;46.17;95131.88;5094070;28;20426;-58
2022/06/14 10:15:31;;;;;;;0.47;0.33;;;;;;;27.85;46.60;95274.63;5094098;28;20454;-56
2022/06/14 10:18:20;;;;;;;0.50;0.47;;;;;;;27.77;48.33;95268.34;5093968;28;20514;-56
2022/06/14 10:20:55;;;;;;;0.40;0.30;;;;;;;26.84;52.14;95274.16;5094003;28;20495;-57
2022/06/14 10:23:58;;;;;;;0.50;0.40;;;;;;;26.63;54.74;95282.09;5093835;28;20924;-58
2022/06/14 10:29:37;;;;;;;0.40;0.30;;;;;;;25.49;56.01;95298.00;5093223;28;20500;-59
2022/06/14 10:33:00;;;;;;;0.40;0.30;;;;;;;24.97;63.34;95292.47;5093572;28;20515;-59
2022/06/14 10:35:37;;;;;;;0.50;0.40;;;;;;;24.98;76.77;95296.72;5077059;28;20841;-58
2022/06/14 10:38:31;;;;;;;5.20;0.50;;;;;;;24.51;81.71;95292.38;5093522;28;20980;-58
2022/06/14 10:41:05;;;;;;;0.53;0.50;;;;;;;24.06;83.72;95289.47;5093252;28;20895;-58
2022/06/14 10:43:44;;;;;;;0.50;0.40;;;;;;;24.10;77.86;95271.41;5093568;28;20450;-56
2022/06/14 10:46:23;;;;;;;0.60;0.50;;;;;;;23.98;83.07;95285.81;5093153;28;20797;-55
2022/06/14 10:49:28;;;;;;;0.50;0.40;;;;;;;24.64;81.38;95293.75;5093337;28;20905;-55
2022/06/14 10:52:31;;;;;;;0.40;0.30;;;;;;;24.54;78.98;95269.94;5093274;28;20451;-55
2022/06/14 10:55:19;;;;;;;0.60;0.50;;;;;;;24.34;82.29;95286.56;5093033;28;20448;-55
2022/06/14 10:58:02;;;;;;;0.70;0.57;;;;;;;23.71;90.87;95297.59;5093458;28;20471;-55
2022/06/14 11:00:40;;;;;;;0.93;0.50;;;;;;;23.42;82.79;95232.38;5093036;28;20460;-55
2022/06/14 11:03:33;;;;;;;0.40;0.40;;;;;;;23.81;81.82;95291.66;5093119;28;20500;-56
2022/06/14 11:06:41;;;;;;;0.50;0.27;;;;;;;24.28;73.42;95296.94;5092984;28;20431;-56
2022/06/14 11:09:22;;;;;;;0.40;0.30;;;;;;;24.41;76.47;95286.75;5092980;28;20507;-56
2022/06/14 11:12:17;;;;;;;0.53;0.43;;;;;;;24.74;85.91;95294.34;5093066;28;20500;-59
2022/06/14 11:14:52;;;;;;;0.40;0.30;;;;;;;24.64;80.15;95223.28;5093013;28;20860;-59
2022/06/14 11:17:38;;;;;;;0.40;0.23;;;;;;;24.97;64.85;95301.34;5092360;28;20474;-59
2022/06/14 11:20:22;;;;;;;0.40;0.20;;;;;;;24.82;68.31;95294.13;5092476;28;20542;-59
2022/06/14 11:22:59;;;;;;;0.40;0.30;;;;;;;24.20;71.29;95261.94;5092515;28;20424;-59
2022/06/14 11:25:40;;;;;;;0.40;0.23;;;;;;;23.12;78.73;95134.72;5092564;28;20500;-59
2022/06/14 11:28:17;;;;;;;0.40;0.37;;;;;;;23.23;75.91;95127.63;5092354;28;20523;-59
2022/06/14 11:30:52;;;;;;;0.60;0.60;;;;;;;24.11;76.66;95278.38;5092788;28;20420;-58
2022/06/14 11:33:35;;;;;;;0.60;0.60;;;;;;;23.16;82.31;95097.72;5092291;28;20436;-58
2022/06/14 11:36:20;;;;;;;16.47;0.53;;;;;;;20.87;84.77;94840.03;5092617;28;20420;-59
2022/06/14 11:39:06;;;;;;;0.43;0.30;;;;;;;22.65;92.11;95081.53;5092273;28;20452;-59
2022/06/14 11:41:41;;;;;;;0.40;0.30;;;;;;;24.57;86.52;95285.50;5092307;28;20507;-59
2022/06/14 11:44:25;;;;;;;0.50;0.30;;;;;;;24.80;84.50;95288.28;5091394;28;20459;-59
2022/06/14 11:47:03;;;;;;;0.50;0.47;;;;;;;24.83;83.79;95286.78;5092196;28;20424;-60
2022/06/14 11:49:39;;;;;;;5.23;0.37;;;;;;;23.93;93.99;95137.19;5092564;28;20861;-59
2022/06/14 11:52:23;;;;;;;0.40;0.30;;;;;;;24.92;89.85;95287.34;5092235;28;20420;-60
2022/06/14 11:55:06;;;;;;;0.50;0.40;;;;;;;24.67;97.56;95283.38;5092449;28;20471;-60
2022/06/14 11:57:49;;;;;;;0.40;0.33;;;;;;;24.16;97.81;95256.44;5091474;28;20478;-60
2022/06/14 12:00:32;;;;;;;0.40;0.30;;;;;;;24.14;97.66;95295.84;5092206;28;20511;-60
2022/06/14 12:03:40;;;;;;;0.40;0.33;;;;;;;24.74;94.10;95276.16;5092259;28;20455;-60
2022/06/14 12:06:20;;;;;;;0.40;0.20;;;;;;;24.86;89.71;95278.72;5091944;28;20484;-60
2022/06/14 12:09:31;;;;;;;0.40;0.30;;;;;;;24.74;93.54;95210.31;5091393;28;20428;-59
2022/06/14 12:12:09;;;;;;;0.40;0.30;;;;;;;24.81;91.02;95192.25;5086653;28;20493;-59
2022/06/14 12:14:57;;;;;;;0.40;0.30;;;;;;;24.97;90.51;95209.16;5091254;28;20454;-59
2022/06/14 12:17:30;;;;;;;0.80;0.30;;;;;;;25.25;85.50;95258.44;5091885;28;20420;-59
2022/06/14 12:20:07;;;;;;;0.50;0.30;;;;;;;25.37;87.69;95262.09;5091811;28;20408;-59
2022/06/14 12:22:47;;;;;;;0.40;0.40;;;;;;;24.25;83.35;95083.66;5091581;28;21054;-58
2022/06/14 12:28:15;;;;;;;0.40;0.30;;;;;;;25.27;82.02;95172.03;5091577;28;20440;-59
2022/06/14 12:30:52;;;;;;;0.63;0.57;;;;;;;24.27;99.78;95159.13;5091933;28;20467;-58
2022/06/14 12:33:30;;;;;;;0.50;0.40;;;;;;;22.97;100.00;95105.81;5091465;28;20423;-58
2022/06/14 12:36:08;;;;;;;0.70;0.63;;;;;;;23.20;100.00;95118.28;5091837;28;20488;-59
2022/06/14 12:38:42;;;;;;;1.03;0.40;;;;;;;23.83;94.71;95126.94;5090759;28;20466;-59
2022/06/14 12:41:27;;;;;;;0.50;0.50;;;;;;;24.62;97.59;95268.16;5091702;28;20521;-59
2022/06/14 12:44:13;;;;;;;0.47;0.40;;;;;;;24.58;100.00;95273.53;5091381;28;20458;-59
2022/06/14 12:46:47;;;;;;;0.60;0.33;;;;;;;23.70;100.00;95157.25;5091538;28;20904;-59
2022/06/14 12:49:23;;;;;;;0.53;0.40;;;;;;;23.76;100.00;95174.75;5091338;28;20805;-58
2022/06/14 12:51:56;;;;;;;0.40;0.30;;;;;;;24.27;100.00;95254.72;5091463;28;20416;-57
2022/06/14 12:54:37;;;;;;;0.40;0.37;;;;;;;23.54;100.00;95289.88;5091153;28;20467;-57
2022/06/14 12:57:13;;;;;;;0.50;0.40;;;;;;;23.81;100.00;95259.16;5090951;28;20531;-57